Time;durP1;ratioP1;P1;durP2;ratioP2;P2;SDS_P1;SDS_P2;PMS_P1;PMS_P2;Temp;Humidity;BMP_temperature;BMP_pressure;BME280_temperature;BME280_humidity;BME280_pressure;Samples;Min_cycle;Max_cycle;Signal;HPM_P1;HPM_P2
2022/05/21 00:01:39;;;;;;;5.90;2.90;;;20.00;71.30;;;;;;5035383;28;20849;-74
2022/05/21 00:04:07;;;;;;;5.53;3.30;;;20.00;71.40;;;;;;5024434;28;21080;-73
2022/05/21 00:06:35;;;;;;;5.23;2.30;;;19.90;71.40;;;;;;5025498;28;20485;-73
2022/05/21 00:09:04;;;;;;;4.90;2.90;;;19.90;71.30;;;;;;5024953;28;21009;-74
2022/05/21 00:11:33;;;;;;;8.00;2.50;;;19.80;71.30;;;;;;5026764;28;20472;-73
2022/05/21 00:14:01;;;;;;;5.60;2.40;;;19.80;71.40;;;;;;5021655;28;20470;-73
2022/05/21 00:16:30;;;;;;;6.10;2.43;;;19.80;71.50;;;;;;5019675;28;20479;-74
2022/05/21 00:18:58;;;;;;;4.60;2.27;;;19.90;71.60;;;;;;5020737;28;20467;-74
2022/05/21 00:21:26;;;;;;;6.33;2.30;;;19.90;71.50;;;;;;5019970;28;20472;-73
2022/05/21 00:23:54;;;;;;;5.07;2.50;;;20.00;71.50;;;;;;5017058;28;21049;-73
2022/05/21 00:26:23;;;;;;;4.50;2.20;;;20.10;71.40;;;;;;5014033;28;20474;-73
2022/05/21 00:28:52;;;;;;;5.77;2.40;;;20.10;71.20;;;;;;5016516;28;21045;-74
2022/05/21 00:31:21;;;;;;;4.67;2.33;;;20.20;71.00;;;;;;5019357;28;20487;-73
2022/05/21 00:33:50;;;;;;;5.37;2.60;;;20.20;70.80;;;;;;5018131;28;20483;-74
2022/05/21 00:36:18;;;;;;;5.20;2.77;;;20.10;70.50;;;;;;5021242;28;21252;-73
2022/05/21 00:38:46;;;;;;;5.73;2.40;;;20.10;70.40;;;;;;5021540;28;20454;-73
2022/05/21 00:41:17;;;;;;;5.20;2.30;;;20.10;70.30;;;;;;5017429;28;20519;-74
2022/05/21 00:43:47;;;;;;;5.37;2.80;;;20.00;70.00;;;;;;5033286;28;21037;-74
2022/05/21 00:46:20;;;;;;;5.80;2.33;;;19.90;70.00;;;;;;5018281;28;20484;-73
2022/05/21 00:48:54;;;;;;;4.80;2.67;;;19.90;69.80;;;;;;5017619;28;20464;-73
2022/05/21 00:51:27;;;;;;;5.23;2.53;;;19.80;69.50;;;;;;5022162;28;20461;-74
2022/05/21 00:53:58;;;;;;;4.70;2.40;;;19.60;68.60;;;;;;5019932;28;20488;-74
2022/05/21 00:56:28;;;;;;;5.90;2.80;;;19.40;69.20;;;;;;5016724;28;20472;-73
2022/05/21 01:01:45;;;;;;;4.80;2.30;;;19.20;69.30;;;;;;4976516;28;20491;-73
2022/05/21 01:04:13;;;;;;;4.90;2.60;;;19.20;69.40;;;;;;5032968;28;20485;-73
2022/05/21 01:07:40;;;;;;;7.10;3.00;;;19.10;69.30;;;;;;5014411;28;20477;-74
2022/05/21 01:10:10;;;;;;;4.70;2.60;;;19.10;69.20;;;;;;5019951;28;20465;-74
2022/05/21 01:12:43;;;;;;;4.87;2.77;;;19.00;69.20;;;;;;5038077;28;20834;-73
2022/05/21 01:15:15;;;;;;;5.53;2.93;;;19.00;69.30;;;;;;5018018;28;20453;-74
2022/05/21 01:17:45;;;;;;;4.40;2.33;;;18.90;69.30;;;;;;5021175;28;20478;-74
2022/05/21 01:20:16;;;;;;;4.70;2.40;;;18.90;69.20;;;;;;5016569;28;20466;-73
2022/05/21 01:22:47;;;;;;;4.13;1.87;;;18.80;69.10;;;;;;5021368;28;20459;-75
2022/05/21 01:25:18;;;;;;;4.83;1.63;;;18.70;69.30;;;;;;5023513;28;20459;-73
2022/05/21 01:27:48;;;;;;;5.60;2.37;;;18.70;69.50;;;;;;5018486;28;20484;-73
2022/05/21 01:30:20;;;;;;;4.40;1.70;;;18.70;69.70;;;;;;5017438;28;20536;-73
2022/05/21 01:32:50;;;;;;;3.93;1.93;;;18.80;69.50;;;;;;5021553;28;20442;-74
2022/05/21 01:35:19;;;;;;;4.10;1.70;;;18.90;69.40;;;;;;5020017;28;20452;-72
2022/05/21 01:37:49;;;;;;;4.70;1.57;;;19.00;69.30;;;;;;5011841;28;20485;-74
2022/05/21 01:40:18;;;;;;;3.80;1.50;;;19.00;69.30;;;;;;5017472;28;20451;-74
2022/05/21 01:44:37;;;;;;;4.53;1.40;;;19.10;69.20;;;;;;5018749;28;20535;-72
2022/05/21 01:45:35;;;;;;;4.63;1.50;;;19.10;69.10;;;;;;5014370;28;20477;-75
2022/05/21 01:48:04;;;;;;;3.97;1.80;;;19.20;69.00;;;;;;5018540;28;20467;-75
2022/05/21 01:50:32;;;;;;;3.93;1.50;;;19.20;69.00;;;;;;5014760;28;20462;-75
2022/05/21 01:53:02;;;;;;;3.97;1.90;;;19.20;68.90;;;;;;5018476;28;20446;-74
2022/05/21 01:55:30;;;;;;;5.30;2.23;;;19.20;68.80;;;;;;5017970;28;20462;-72
2022/05/21 01:57:58;;;;;;;5.00;2.20;;;19.20;67.90;;;;;;5023687;28;20997;-75
2022/05/21 02:00:27;;;;;;;4.40;2.10;;;19.10;68.20;;;;;;5020921;28;20446;-74
2022/05/21 02:02:55;;;;;;;9.13;2.20;;;19.10;68.30;;;;;;5019840;28;20463;-72
2022/05/21 02:05:23;;;;;;;4.10;2.10;;;19.00;68.30;;;;;;5020613;28;20476;-75
2022/05/21 02:07:51;;;;;;;4.30;2.30;;;19.00;68.20;;;;;;5020162;28;20446;-74
2022/05/21 02:10:22;;;;;;;5.83;2.30;;;19.00;68.10;;;;;;5016096;28;20451;-74
2022/05/21 02:12:50;;;;;;;4.40;2.33;;;18.90;67.60;;;;;;5017874;28;20452;-75
2022/05/21 02:15:18;;;;;;;4.00;1.40;;;18.80;67.70;;;;;;5018156;28;20473;-74
2022/05/21 02:17:46;;;;;;;5.70;2.20;;;18.70;68.10;;;;;;5020155;28;20469;-73
2022/05/21 02:20:14;;;;;;;4.50;1.70;;;18.70;68.10;;;;;;5020383;28;20472;-75
2022/05/21 02:22:42;;;;;;;6.03;1.90;;;18.70;68.20;;;;;;5024104;28;20981;-75
2022/05/21 02:25:10;;;;;;;4.73;2.10;;;18.70;68.30;;;;;;5017590;28;20550;-75
2022/05/21 02:27:40;;;;;;;3.90;1.60;;;18.80;68.30;;;;;;5018563;28;20876;-75
2022/05/21 02:30:09;;;;;;;4.87;1.70;;;18.80;68.30;;;;;;5017996;28;20479;-72
2022/05/21 02:32:37;;;;;;;5.13;1.93;;;18.90;68.20;;;;;;5018316;28;20876;-73
2022/05/21 02:35:06;;;;;;;4.40;2.20;;;18.90;68.00;;;;;;5016250;28;20478;-73
2022/05/21 02:40:21;;;;;;;4.07;1.90;;;18.80;68.00;;;;;;5016109;28;20461;-74
2022/05/21 02:42:50;;;;;;;4.50;1.90;;;18.70;68.20;;;;;;5021381;28;20449;-74
2022/05/21 02:45:20;;;;;;;4.83;1.90;;;18.70;68.20;;;;;;5017398;28;20818;-74
2022/05/21 02:47:49;;;;;;;4.43;1.70;;;18.80;68.20;;;;;;5014400;28;20472;-74
2022/05/21 02:50:21;;;;;;;5.67;1.73;;;18.80;68.00;;;;;;5016484;28;20473;-74
2022/05/21 02:52:49;;;;;;;4.60;1.33;;;18.80;67.80;;;;;;5019347;28;20464;-74
2022/05/21 02:55:18;;;;;;;4.20;1.90;;;18.80;68.00;;;;;;5021379;28;20484;-74
2022/05/21 02:57:47;;;;;;;3.70;1.50;;;18.80;68.00;;;;;;5019313;28;20540;-74
2022/05/21 03:00:20;;;;;;;4.00;1.60;;;18.80;67.90;;;;;;5015882;28;20456;-74
2022/05/21 03:02:49;;;;;;;4.77;1.83;;;18.80;67.80;;;;;;5015268;28;21068;-74
2022/05/21 03:05:17;;;;;;;5.63;1.33;;;18.70;67.70;;;;;;5017099;28;20468;-74
2022/05/21 03:07:48;;;;;;;4.20;1.73;;;18.70;67.70;;;;;;5021838;28;20476;-74
2022/05/21 03:10:21;;;;;;;4.73;1.43;;;18.70;67.70;;;;;;5019233;28;20551;-74
2022/05/21 03:12:51;;;;;;;5.80;1.83;;;18.70;67.70;;;;;;5018296;28;20451;-74
2022/05/21 03:15:23;;;;;;;4.23;1.63;;;18.70;67.50;;;;;;5016884;28;20474;-73
2022/05/21 03:17:51;;;;;;;4.37;1.70;;;18.70;67.40;;;;;;5016109;28;20481;-74
2022/05/21 03:20:21;;;;;;;4.93;2.33;;;18.70;67.30;;;;;;5018117;28;20933;-75
2022/05/21 03:22:50;;;;;;;4.87;2.07;;;18.60;67.30;;;;;;5017350;28;20460;-74
2022/05/21 03:25:18;;;;;;;4.23;1.90;;;18.60;67.20;;;;;;5020303;28;20447;-74
2022/05/21 03:27:49;;;;;;;5.70;2.03;;;18.60;67.10;;;;;;5018358;28;21028;-76
2022/05/21 03:30:29;;;;;;;4.60;1.90;;;18.50;66.90;;;;;;5013979;28;20468;-75
2022/05/21 03:32:57;;;;;;;7.00;2.30;;;18.50;66.80;;;;;;5023164;28;20490;-75
2022/05/21 03:35:26;;;;;;;5.70;2.20;;;18.40;66.80;;;;;;5017806;28;21015;-74
2022/05/21 03:37:54;;;;;;;4.27;1.73;;;18.40;66.80;;;;;;5019218;28;20460;-74
2022/05/21 03:40:32;;;;;;;4.70;1.80;;;18.30;66.90;;;;;;5022649;28;20465;-74
2022/05/21 03:43:01;;;;;;;5.40;2.23;;;18.30;66.90;;;;;;5017156;28;20530;-75
2022/05/21 03:45:31;;;;;;;4.90;2.20;;;18.30;66.90;;;;;;5015717;28;20551;-74
2022/05/21 03:47:59;;;;;;;5.37;1.50;;;18.40;66.80;;;;;;5016161;28;20453;-75
2022/05/21 03:50:31;;;;;;;4.07;1.63;;;18.40;66.70;;;;;;5020741;28;20462;-75
2022/05/21 03:52:59;;;;;;;4.20;1.80;;;18.40;66.60;;;;;;5013643;28;20470;-73
2022/05/21 03:55:30;;;;;;;5.33;1.70;;;18.30;66.50;;;;;;5016366;28;20471;-75
2022/05/21 03:57:58;;;;;;;4.20;1.80;;;18.30;66.60;;;;;;5017643;28;20455;-74
2022/05/21 04:00:27;;;;;;;5.20;2.20;;;18.30;66.60;;;;;;5018327;28;20467;-74
2022/05/21 04:02:57;;;;;;;5.80;2.17;;;18.20;66.50;;;;;;5013701;28;20471;-74
2022/05/21 04:05:26;;;;;;;4.13;1.77;;;18.20;66.50;;;;;;5011337;28;20449;-73
2022/05/21 04:07:54;;;;;;;8.53;1.80;;;18.20;66.40;;;;;;5016969;28;20460;-75
2022/05/21 04:10:22;;;;;;;4.20;1.83;;;18.20;66.40;;;;;;5020929;28;20463;-73
2022/05/21 04:12:51;;;;;;;5.27;1.97;;;18.20;66.40;;;;;;5023074;28;20471;-74
2022/05/21 04:15:19;;;;;;;4.50;1.73;;;18.20;66.40;;;;;;5021148;28;20476;-74
2022/05/21 04:17:48;;;;;;;3.93;1.80;;;18.20;66.40;;;;;;5020973;28;20488;-74
2022/05/21 04:20:20;;;;;;;4.63;1.90;;;18.30;66.40;;;;;;5019312;28;20500;-73
2022/05/21 04:22:47;;;;;;;7.43;1.57;;;18.30;66.40;;;;;;5017261;28;20456;-74
2022/05/21 04:25:16;;;;;;;6.57;1.90;;;18.40;66.50;;;;;;5017118;28;20456;-74
2022/05/21 04:27:44;;;;;;;4.03;1.70;;;18.50;66.50;;;;;;5018742;28;20986;-74
2022/05/21 04:30:16;;;;;;;7.30;2.53;;;18.60;66.60;;;;;;5021203;28;20550;-74
2022/05/21 04:32:45;;;;;;;4.53;2.20;;;18.60;66.50;;;;;;5022004;28;20465;-74
2022/05/21 04:35:15;;;;;;;4.77;2.57;;;18.70;66.60;;;;;;5022023;28;21100;-74
2022/05/21 04:37:46;;;;;;;8.03;2.40;;;18.80;66.40;;;;;;5017732;28;21290;-74
2022/05/21 04:40:16;;;;;;;4.60;2.43;;;18.90;66.30;;;;;;5020404;28;20558;-73
2022/05/21 04:42:44;;;;;;;6.73;2.77;;;18.90;66.20;;;;;;5020656;28;21032;-74
2022/05/21 04:45:14;;;;;;;5.90;2.90;;;19.00;66.30;;;;;;5022368;28;20497;-74
2022/05/21 04:47:42;;;;;;;5.83;3.37;;;19.10;66.30;;;;;;5023433;28;20551;-74
2022/05/21 04:50:12;;;;;;;11.60;3.30;;;19.20;66.20;;;;;;5019250;28;20497;-74
2022/05/21 04:52:40;;;;;;;7.90;3.90;;;19.30;66.10;;;;;;5024708;28;21057;-74
2022/05/21 04:55:10;;;;;;;6.57;3.10;;;19.30;66.00;;;;;;5016536;28;20478;-74
2022/05/21 04:57:39;;;;;;;5.57;2.50;;;19.40;65.90;;;;;;5018075;28;20484;-74
2022/05/21 05:00:08;;;;;;;5.27;3.00;;;19.50;65.70;;;;;;5016922;28;20451;-74
2022/05/21 05:02:37;;;;;;;6.20;2.90;;;19.60;65.60;;;;;;5023673;28;20466;-74
2022/05/21 05:05:06;;;;;;;7.30;3.20;;;19.70;65.60;;;;;;5018473;28;20541;-74
2022/05/21 05:07:34;;;;;;;5.73;3.17;;;19.80;65.70;;;;;;5018526;28;20482;-73
2022/05/21 05:10:02;;;;;;;6.17;3.30;;;19.90;65.60;;;;;;5021548;28;20460;-75
2022/05/21 05:12:32;;;;;;;5.13;3.13;;;20.00;65.50;;;;;;5021483;28;20473;-74
2022/05/21 05:15:01;;;;;;;5.23;2.97;;;20.10;65.50;;;;;;5019289;28;20458;-73
2022/05/21 05:17:30;;;;;;;6.87;3.07;;;20.20;65.50;;;;;;5011846;28;20474;-74
2022/05/21 05:19:59;;;;;;;7.60;2.90;;;20.40;66.00;;;;;;5011592;28;21119;-75
2022/05/21 05:22:28;;;;;;;6.50;2.93;;;20.60;66.60;;;;;;5016254;28;20768;-75
2022/05/21 05:25:04;;;;;;;6.37;3.40;;;21.20;66.50;;;;;;5016799;28;20444;-73
2022/05/21 05:27:33;;;;;;;5.83;3.60;;;22.10;65.30;;;;;;5017961;28;20544;-74
2022/05/21 05:30:01;;;;;;;6.70;3.00;;;23.20;63.40;;;;;;5017781;28;20469;-72
2022/05/21 05:32:29;;;;;;;5.20;2.80;;;24.30;61.20;;;;;;5022131;28;20865;-74
2022/05/21 05:34:58;;;;;;;5.50;2.93;;;25.20;59.70;;;;;;5019737;28;20543;-75
2022/05/21 05:37:26;;;;;;;5.97;3.07;;;26.10;58.50;;;;;;5021260;28;20475;-75
2022/05/21 05:39:56;;;;;;;6.20;3.37;;;26.90;57.20;;;;;;5018240;28;20462;-73
2022/05/21 05:42:25;;;;;;;6.43;2.70;;;27.40;56.40;;;;;;5016206;28;20552;-73
2022/05/21 05:44:55;;;;;;;6.50;3.20;;;27.50;55.70;;;;;;5013664;28;20467;-73
2022/05/21 05:47:23;;;;;;;5.67;3.10;;;27.30;55.10;;;;;;5031818;28;20480;-73
2022/05/21 05:49:57;;;;;;;6.60;3.37;;;27.50;55.60;;;;;;5015547;28;20465;-73
2022/05/21 05:52:25;;;;;;;8.77;3.53;;;28.20;55.30;;;;;;5015774;28;20472;-73
2022/05/21 05:54:53;;;;;;;5.77;2.80;;;29.10;54.60;;;;;;5015409;28;20458;-72
2022/05/21 05:57:23;;;;;;;6.77;3.10;;;30.00;53.40;;;;;;5014135;28;20483;-73
2022/05/21 05:59:51;;;;;;;9.43;2.70;;;30.80;52.40;;;;;;5020016;28;20461;-74
2022/05/21 06:05:12;;;;;;;6.37;3.43;;;32.00;49.70;;;;;;5021966;28;20457;-73
2022/05/21 06:07:43;;;;;;;5.63;2.90;;;31.90;48.70;;;;;;5021651;28;20478;-73
2022/05/21 06:10:13;;;;;;;6.00;2.37;;;32.00;48.10;;;;;;5022911;28;20488;-72
2022/05/21 06:12:41;;;;;;;4.90;2.37;;;31.60;46.70;;;;;;5020726;28;20820;-72
2022/05/21 06:15:11;;;;;;;4.60;2.33;;;30.20;46.90;;;;;;5019163;28;20860;-74
2022/05/21 06:17:41;;;;;;;7.70;2.63;;;28.90;48.20;;;;;;5020585;28;20503;-74
2022/05/21 06:20:14;;;;;;;5.77;3.00;;;27.80;48.30;;;;;;5018003;28;20474;-74
2022/05/21 06:22:42;;;;;;;4.87;2.30;;;26.60;49.30;;;;;;5019537;28;20516;-74
2022/05/21 06:25:17;;;;;;;6.30;2.60;;;25.40;50.10;;;;;;5017478;28;20453;-75
2022/05/21 06:27:45;;;;;;;5.37;2.60;;;24.50;51.20;;;;;;5013737;28;20481;-74
2022/05/21 06:30:14;;;;;;;5.50;2.13;;;23.70;52.10;;;;;;5014641;28;20962;-74
2022/05/21 06:32:44;;;;;;;5.63;2.40;;;23.00;52.90;;;;;;5017813;28;20459;-74
2022/05/21 06:35:14;;;;;;;4.63;2.27;;;22.40;53.60;;;;;;5019280;28;20456;-74
2022/05/21 06:37:42;;;;;;;4.20;2.00;;;21.90;54.20;;;;;;5019464;28;20502;-74
2022/05/21 06:40:11;;;;;;;5.70;2.13;;;21.60;54.90;;;;;;5024642;28;21171;-74
2022/05/21 06:42:39;;;;;;;4.63;2.27;;;21.20;55.40;;;;;;5021389;28;20460;-74
2022/05/21 06:45:09;;;;;;;4.50;2.00;;;21.00;55.90;;;;;;5019031;28;20467;-74
2022/05/21 06:47:37;;;;;;;5.77;2.03;;;20.70;56.30;;;;;;5020725;28;20480;-74
2022/05/21 06:50:07;;;;;;;4.80;1.70;;;20.60;56.80;;;;;;5020181;28;20474;-74
2022/05/21 06:52:36;;;;;;;4.67;1.80;;;20.40;57.10;;;;;;5021182;28;20463;-75
2022/05/21 06:55:09;;;;;;;6.50;1.50;;;20.20;57.40;;;;;;5017012;28;20479;-74
2022/05/21 06:57:37;;;;;;;4.23;1.43;;;20.10;57.70;;;;;;5033195;28;20626;-74
2022/05/21 07:00:06;;;;;;;4.50;1.60;;;20.00;57.90;;;;;;5016386;28;20468;-74
2022/05/21 07:02:34;;;;;;;6.23;1.67;;;20.00;58.20;;;;;;5019769;28;20474;-74
2022/05/21 07:07:49;;;;;;;5.20;1.73;;;19.90;58.90;;;;;;5016090;28;20480;-74
2022/05/21 07:10:21;;;;;;;6.10;2.10;;;19.80;58.80;;;;;;5015196;28;20476;-74
2022/05/21 07:12:50;;;;;;;5.10;1.37;;;19.80;59.00;;;;;;5018485;28;20454;-73
2022/05/21 07:15:19;;;;;;;5.23;1.40;;;19.80;59.10;;;;;;5017634;28;20467;-74
2022/05/21 07:17:47;;;;;;;4.43;1.40;;;19.80;59.20;;;;;;5014856;28;20488;-74
2022/05/21 07:20:18;;;;;;;5.90;1.60;;;19.70;59.40;;;;;;5016402;28;20822;-74
2022/05/21 07:22:49;;;;;;;4.90;1.40;;;19.80;59.50;;;;;;5017160;28;20545;-74
2022/05/21 07:25:20;;;;;;;6.23;1.80;;;19.80;59.70;;;;;;5014369;28;20445;-74
2022/05/21 07:27:48;;;;;;;3.97;1.53;;;19.80;59.70;;;;;;5012803;28;20908;-74
2022/05/21 07:30:16;;;;;;;8.80;1.90;;;19.80;59.90;;;;;;5014834;28;21021;-74
2022/05/21 07:32:45;;;;;;;5.13;1.80;;;19.90;60.20;;;;;;5015184;28;20500;-74
2022/05/21 07:35:15;;;;;;;3.97;1.43;;;19.90;60.20;;;;;;5016828;28;20819;-74
2022/05/21 07:37:47;;;;;;;6.30;1.70;;;19.90;60.40;;;;;;5013873;28;20485;-74
2022/05/21 07:40:17;;;;;;;4.40;1.43;;;19.90;60.40;;;;;;5020447;28;20455;-74
2022/05/21 07:42:46;;;;;;;4.13;1.70;;;19.90;60.50;;;;;;5021079;28;20457;-74
2022/05/21 07:45:17;;;;;;;7.50;1.57;;;19.90;60.50;;;;;;5020929;28;20461;-74
2022/05/21 07:47:45;;;;;;;4.33;1.37;;;19.80;60.70;;;;;;5025630;28;20850;-74
2022/05/21 07:50:14;;;;;;;6.07;1.43;;;19.80;60.80;;;;;;5025368;28;20465;-74
2022/05/21 07:52:43;;;;;;;5.23;1.60;;;19.80;61.00;;;;;;5019089;28;21026;-74
2022/05/21 07:55:13;;;;;;;4.47;1.40;;;19.70;61.00;;;;;;5019377;28;20453;-74
2022/05/21 07:57:43;;;;;;;6.30;1.70;;;19.70;61.10;;;;;;5025914;28;20521;-74
2022/05/21 08:00:17;;;;;;;5.67;1.80;;;19.70;61.10;;;;;;5021660;28;20451;-74
2022/05/21 08:02:46;;;;;;;4.00;1.33;;;19.70;61.10;;;;;;5021441;28;20978;-74
2022/05/21 08:05:14;;;;;;;5.63;1.63;;;19.70;61.30;;;;;;5023305;28;20452;-74
2022/05/21 08:07:43;;;;;;;4.10;1.37;;;19.70;61.40;;;;;;5020478;28;20599;-73
2022/05/21 08:10:11;;;;;;;4.80;1.53;;;19.70;61.40;;;;;;5019097;28;20573;-73
2022/05/21 08:12:40;;;;;;;4.70;1.50;;;19.60;61.50;;;;;;5016903;28;20451;-74
2022/05/21 08:15:11;;;;;;;5.30;1.67;;;19.60;61.60;;;;;;5019090;28;20456;-74
2022/05/21 08:17:39;;;;;;;5.00;1.30;;;19.60;61.80;;;;;;5020868;28;20570;-74
2022/05/21 08:20:11;;;;;;;4.63;1.30;;;19.60;61.80;;;;;;5024284;28;21172;-74
2022/05/21 08:28:09;;;;;;;4.70;1.50;;;19.60;62.20;;;;;;5014297;28;20454;-74
2022/05/21 08:30:38;;;;;;;5.17;1.60;;;19.70;62.40;;;;;;5015628;28;20477;-74
2022/05/21 08:33:07;;;;;;;5.33;1.37;;;19.80;62.50;;;;;;5019345;28;20470;-74
2022/05/21 08:35:38;;;;;;;4.37;1.40;;;19.90;62.60;;;;;;5016320;28;20458;-74
2022/05/21 08:38:07;;;;;;;5.20;1.50;;;20.10;62.60;;;;;;5016082;28;20922;-74
2022/05/21 08:40:42;;;;;;;3.97;1.27;;;20.10;62.50;;;;;;5021338;28;20505;-74
2022/05/21 08:43:19;;;;;;;4.77;1.40;;;20.00;62.20;;;;;;5020243;28;20460;-74
2022/05/21 08:46:15;;;;;;;5.33;2.00;;;19.90;62.40;;;;;;5020678;28;20485;-74
2022/05/21 08:48:50;;;;;;;5.67;1.60;;;19.90;62.50;;;;;;5020529;28;20462;-74
2022/05/21 08:51:21;;;;;;;4.27;1.50;;;19.80;62.50;;;;;;5020580;28;20454;-74
2022/05/21 08:53:52;;;;;;;4.40;2.40;;;19.80;62.50;;;;;;5019675;28;20452;-74
2022/05/21 08:56:22;;;;;;;4.40;1.23;;;19.70;62.60;;;;;;5016287;28;20509;-74
2022/05/21 08:58:53;;;;;;;3.50;1.30;;;19.70;62.90;;;;;;5032457;28;20484;-74
2022/05/21 09:01:25;;;;;;;5.57;1.23;;;19.80;63.00;;;;;;5019386;28;20495;-74
2022/05/21 09:03:56;;;;;;;7.00;1.47;;;19.80;63.00;;;;;;5019809;28;20455;-74
2022/05/21 09:06:36;;;;;;;6.80;1.50;;;19.70;63.10;;;;;;5020889;28;20497;-74
2022/05/21 09:09:20;;;;;;;3.90;1.20;;;19.70;63.10;;;;;;5023548;28;20452;-74
2022/05/21 09:11:50;;;;;;;5.63;1.13;;;19.80;63.40;;;;;;5038253;28;20507;-75
2022/05/21 09:14:32;;;;;;;3.20;0.70;;;19.80;63.40;;;;;;5023875;28;20476;-75
2022/05/21 09:17:00;;;;;;;4.33;1.17;;;19.90;63.40;;;;;;5017957;28;20495;-75
2022/05/21 09:19:35;;;;;;;7.00;1.27;;;19.90;63.50;;;;;;5021177;28;20449;-75
2022/05/21 09:22:05;;;;;;;6.77;1.00;;;19.90;63.60;;;;;;5019944;28;20461;-75
2022/05/21 09:24:39;;;;;;;4.47;0.97;;;20.00;63.70;;;;;;5021201;28;20465;-75
2022/05/21 09:27:26;;;;;;;3.63;0.90;;;20.00;63.20;;;;;;5018994;28;20707;-75
2022/05/21 09:30:09;;;;;;;4.80;1.20;;;19.90;63.30;;;;;;5021792;28;20486;-75
2022/05/21 09:32:40;;;;;;;5.90;1.20;;;19.90;63.30;;;;;;5016324;28;20507;-74
2022/05/21 09:35:11;;;;;;;3.63;1.10;;;19.80;63.30;;;;;;5016955;28;20457;-75
2022/05/21 09:37:41;;;;;;;3.83;1.10;;;19.80;63.50;;;;;;5015375;28;21015;-74
2022/05/21 09:40:24;;;;;;;5.20;1.53;;;19.90;63.60;;;;;;5016284;28;20455;-73
2022/05/21 09:45:41;;;;;;;4.27;1.07;;;20.00;63.50;;;;;;5016663;28;20509;-74
2022/05/21 09:48:23;;;;;;;4.97;1.10;;;20.00;63.20;;;;;;5017260;28;21253;-75
2022/05/21 09:50:54;;;;;;;5.50;1.10;;;20.00;63.30;;;;;;5017014;28;20475;-75
2022/05/21 09:53:33;;;;;;;3.80;1.20;;;20.00;63.30;;;;;;5017086;28;20471;-75
2022/05/21 09:56:06;;;;;;;4.63;1.20;;;20.10;63.00;;;;;;5017387;28;20478;-74
2022/05/21 09:58:39;;;;;;;8.87;1.80;;;20.10;63.20;;;;;;5022864;28;20480;-75
2022/05/21 10:01:08;;;;;;;3.73;1.10;;;20.20;63.50;;;;;;5019210;28;20570;-74
2022/05/21 10:03:43;;;;;;;4.23;1.00;;;20.30;63.20;;;;;;5016593;28;20464;-74
2022/05/21 10:06:35;;;;;;;5.20;1.00;;;20.40;63.20;;;;;;5035285;28;21019;-74
2022/05/21 10:12:05;;;;;;;6.13;1.03;;;20.40;63.00;;;;;;5018696;28;20460;-75
2022/05/21 10:14:38;;;;;;;3.60;1.03;;;20.50;62.90;;;;;;5017490;28;20462;-75
2022/05/21 10:17:10;;;;;;;6.93;1.50;;;20.50;63.00;;;;;;5014040;28;20525;-75
2022/05/21 10:19:47;;;;;;;4.47;1.60;;;20.50;62.90;;;;;;5018057;28;20472;-75
2022/05/21 10:22:26;;;;;;;4.23;1.20;;;20.50;63.00;;;;;;5015414;28;20469;-75
2022/05/21 10:25:06;;;;;;;3.90;1.30;;;20.50;63.00;;;;;;5017607;28;20460;-72
2022/05/21 10:28:01;;;;;;;4.07;1.30;;;20.50;62.90;;;;;;5017404;28;20550;-72
2022/05/21 10:30:40;;;;;;;7.50;1.27;;;20.60;63.10;;;;;;5017091;28;20466;-73
2022/05/21 10:33:16;;;;;;;3.33;0.97;;;20.60;63.00;;;;;;5014987;28;20999;-73
2022/05/21 10:35:57;;;;;;;4.33;1.20;;;20.60;63.00;;;;;;5016959;28;20465;-72
2022/05/21 10:38:40;;;;;;;5.23;1.27;;;20.60;62.70;;;;;;5014496;28;21108;-73
2022/05/21 10:41:19;;;;;;;7.73;1.17;;;20.70;62.50;;;;;;5015526;28;20464;-73
2022/05/21 10:44:03;;;;;;;4.50;1.10;;;20.70;62.40;;;;;;5019606;28;20462;-72
2022/05/21 10:46:41;;;;;;;4.60;1.00;;;20.80;61.90;;;;;;5018699;28;21133;-72
2022/05/21 10:49:27;;;;;;;6.83;1.10;;;20.60;60.90;;;;;;5011960;28;20511;-72
2022/05/21 10:52:02;;;;;;;4.77;0.90;;;20.60;60.90;;;;;;5018658;28;21035;-73
2022/05/21 10:54:54;;;;;;;5.90;1.50;;;20.50;61.50;;;;;;5033512;28;20471;-71
2022/05/21 10:57:48;;;;;;;3.80;1.10;;;20.60;61.60;;;;;;5016075;28;21313;-71
2022/05/21 11:00:25;;;;;;;5.20;1.10;;;20.70;61.30;;;;;;5031567;28;20466;-73
2022/05/21 11:03:28;;;;;;;5.83;1.07;;;20.60;61.30;;;;;;5020979;28;20496;-73
2022/05/21 11:06:08;;;;;;;5.40;1.43;;;20.60;61.10;;;;;;5017408;28;20486;-69
2022/05/21 11:08:46;;;;;;;4.10;1.13;;;20.60;61.10;;;;;;5012981;28;20487;-69
2022/05/21 11:11:27;;;;;;;6.43;0.90;;;20.50;60.30;;;;;;5018741;28;20464;-72
2022/05/21 11:14:03;;;;;;;4.30;0.97;;;20.50;61.10;;;;;;5016335;28;21002;-71
2022/05/21 11:16:38;;;;;;;4.63;1.10;;;20.50;61.30;;;;;;5015708;28;20482;-72
2022/05/21 11:19:13;;;;;;;4.73;1.33;;;20.60;61.20;;;;;;5018509;28;20460;-72
2022/05/21 11:21:45;;;;;;;5.20;1.27;;;20.70;61.30;;;;;;5014121;28;20471;-73
2022/05/21 11:24:19;;;;;;;4.37;1.10;;;20.80;61.20;;;;;;5015217;28;21019;-73
2022/05/21 11:26:52;;;;;;;3.17;0.73;;;20.90;61.10;;;;;;5017397;28;20499;-73
2022/05/21 11:29:29;;;;;;;4.40;1.00;;;20.90;61.00;;;;;;5021812;28;20478;-71
2022/05/21 11:37:42;;;;;;;3.80;1.03;;;21.20;60.80;;;;;;4991903;28;20487;-72
2022/05/21 11:40:52;;;;;;;4.20;0.97;;;21.20;60.60;;;;;;5023461;28;20508;-72
2022/05/21 11:43:21;;;;;;;5.83;1.20;;;21.20;60.30;;;;;;5022554;28;22412;-72
2022/05/21 11:46:01;;;;;;;4.20;1.23;;;21.20;60.40;;;;;;5018934;28;20515;-72
2022/05/21 11:48:30;;;;;;;3.67;0.93;;;21.20;59.40;;;;;;5016487;28;20557;-72
2022/05/21 11:51:25;;;;;;;4.03;1.03;;;21.20;59.90;;;;;;5012185;28;20472;-73
2022/05/21 11:53:53;;;;;;;6.20;1.17;;;21.20;59.80;;;;;;5016309;28;20482;-72
2022/05/21 11:56:23;;;;;;;10.63;0.93;;;21.20;59.90;;;;;;5017154;28;20481;-72
2022/05/21 11:59:20;;;;;;;5.97;1.23;;;21.20;59.90;;;;;;5018196;28;20486;-72
2022/05/21 12:01:56;;;;;;;5.20;0.93;;;21.30;59.90;;;;;;5017198;28;20558;-71
2022/05/21 12:04:47;;;;;;;6.03;1.00;;;21.20;59.80;;;;;;5020177;28;20473;-71
2022/05/21 12:07:55;;;;;;;4.17;1.00;;;21.30;60.00;;;;;;5018969;28;20474;-71
2022/05/21 12:10:52;;;;;;;3.80;1.10;;;21.30;59.80;;;;;;5022456;28;20466;-71
2022/05/21 12:13:22;;;;;;;3.90;0.90;;;21.30;59.80;;;;;;5022894;28;20457;-71
2022/05/21 12:15:53;;;;;;;4.80;1.10;;;21.30;58.90;;;;;;5019927;28;20866;-72
2022/05/21 12:18:43;;;;;;;4.67;1.00;;;21.20;59.20;;;;;;5022199;28;20489;-71
2022/05/21 12:21:47;;;;;;;3.67;1.07;;;21.20;58.50;;;;;;5020799;28;20460;-71
2022/05/21 12:24:38;;;;;;;5.30;1.57;;;21.20;58.50;;;;;;5019198;28;20995;-73
2022/05/21 12:27:22;;;;;;;5.47;1.20;;;21.00;58.10;;;;;;5016057;28;20535;-73
2022/05/21 12:29:56;;;;;;;4.83;0.93;;;21.00;58.90;;;;;;5020814;28;20480;-72
2022/05/21 12:32:26;;;;;;;4.33;1.30;;;21.10;59.00;;;;;;5026014;28;21109;-71
2022/05/21 12:35:30;;;;;;;4.50;1.20;;;21.20;59.00;;;;;;5027832;28;20591;-72
2022/05/21 12:38:05;;;;;;;7.60;2.57;;;21.20;58.40;;;;;;5008727;28;20859;-72
2022/05/21 12:40:45;;;;;;;3.70;1.27;;;21.20;58.90;;;;;;5018052;28;21040;-71
2022/05/21 12:43:15;;;;;;;6.47;1.50;;;21.30;59.00;;;;;;5024630;28;20467;-71
2022/05/21 12:45:45;;;;;;;7.53;1.50;;;21.40;58.40;;;;;;5024347;28;20480;-71
2022/05/21 12:48:19;;;;;;;4.43;1.20;;;21.40;58.40;;;;;;5024064;28;20476;-71
2022/05/21 12:50:50;;;;;;;5.33;1.20;;;21.40;58.50;;;;;;5027370;28;20453;-71
2022/05/21 12:53:23;;;;;;;4.00;1.10;;;21.50;58.60;;;;;;5027550;28;20461;-71
2022/05/21 12:56:02;;;;;;;6.57;1.10;;;21.60;58.30;;;;;;5028823;28;20457;-72
2022/05/21 12:58:31;;;;;;;5.57;1.00;;;21.60;58.20;;;;;;5030162;28;20448;-71
2022/05/21 13:01:00;;;;;;;5.67;1.37;;;21.70;58.00;;;;;;5023694;28;20481;-71
2022/05/21 13:03:33;;;;;;;3.90;1.30;;;21.70;57.80;;;;;;5020012;28;20557;-72
2022/05/21 13:06:03;;;;;;;5.97;1.20;;;21.70;57.80;;;;;;5017987;28;20489;-73
2022/05/21 13:08:33;;;;;;;5.07;1.20;;;21.70;57.60;;;;;;5018190;28;20478;-72
2022/05/21 13:11:11;;;;;;;6.47;2.00;;;21.70;57.90;;;;;;5018013;28;20460;-73
2022/05/21 13:13:43;;;;;;;6.23;1.43;;;21.80;58.00;;;;;;5024558;28;20852;-72
2022/05/21 13:16:16;;;;;;;4.40;1.13;;;21.90;57.90;;;;;;5027250;28;20477;-71
2022/05/21 13:19:08;;;;;;;6.50;1.37;;;21.90;57.80;;;;;;5024303;28;20467;-72
2022/05/21 13:21:42;;;;;;;4.10;1.07;;;21.90;57.70;;;;;;5026403;28;20502;-72
2022/05/21 13:24:19;;;;;;;4.60;1.20;;;21.90;57.10;;;;;;5025816;28;20472;-71
2022/05/21 13:27:03;;;;;;;4.73;1.20;;;21.90;57.20;;;;;;5027165;28;20483;-73
2022/05/21 13:29:31;;;;;;;12.43;1.17;;;21.90;57.50;;;;;;5025098;28;20472;-72
2022/05/21 13:32:16;;;;;;;6.20;1.40;;;21.90;57.50;;;;;;5023681;28;20480;-72
2022/05/21 13:34:44;;;;;;;5.93;1.20;;;21.90;57.30;;;;;;5018787;28;20479;-72
2022/05/21 13:37:13;;;;;;;4.63;1.30;;;21.90;57.60;;;;;;5024588;28;20862;-72
2022/05/21 13:39:41;;;;;;;4.50;1.10;;;21.90;57.60;;;;;;5021896;28;20482;-73
2022/05/21 13:42:14;;;;;;;4.80;1.30;;;21.90;57.60;;;;;;5020153;28;20483;-73